createdAt,value
2017-09-16T00:00:00.087Z,11.5
2017-09-16T00:00:26.216Z,11.57
2017-09-16T00:00:52.346Z,11.47
2017-09-16T00:01:18.476Z,11.51
2017-09-16T00:01:44.605Z,11.54
2017-09-16T00:02:10.735Z,11.62
2017-09-16T00:02:36.864Z,11.6
2017-09-16T00:03:02.994Z,11.6
2017-09-16T00:03:29.124Z,11.54
2017-09-16T00:03:55.254Z,11.66
2017-09-16T00:04:21.381Z,11.54
2017-09-16T00:04:47.511Z,11.47
2017-09-16T00:05:13.639Z,11.47
2017-09-16T00:05:39.766Z,11.47
2017-09-16T00:06:05.896Z,11.52
2017-09-16T00:06:32.025Z,11.48
2017-09-16T00:06:58.154Z,11.52
2017-09-16T00:07:24.284Z,11.51
2017-09-16T00:07:50.414Z,11.5
2017-09-16T00:08:16.545Z,11.52
2017-09-16T00:08:42.672Z,11.51
2017-09-16T00:09:08.803Z,11.5
2017-09-16T00:09:34.931Z,11.5
2017-09-16T00:10:01.060Z,11.5
2017-09-16T00:10:27.215Z,11.54
2017-09-16T00:10:53.342Z,11.54
2017-09-16T00:11:19.470Z,11.6
2017-09-16T00:11:45.598Z,11.59
2017-09-16T00:12:11.732Z,11.62
2017-09-16T00:12:37.853Z,11.6
2017-09-16T00:13:03.982Z,11.57
2017-09-16T00:13:30.112Z,11.68
2017-09-16T00:13:56.241Z,11.7
2017-09-16T00:14:22.369Z,11.68
2017-09-16T00:14:48.498Z,11.72
2017-09-16T00:15:14.627Z,11.66
2017-09-16T00:15:40.780Z,11.6
2017-09-16T00:16:06.909Z,11.63
2017-09-16T00:16:33.038Z,11.68
2017-09-16T00:16:59.167Z,11.66
2017-09-16T00:17:25.298Z,11.65
2017-09-16T00:17:51.426Z,11.47
2017-09-16T00:18:17.577Z,11.52
2017-09-16T00:18:43.706Z,11.59
2017-09-16T00:19:09.833Z,11.5
2017-09-16T00:19:35.960Z,11.47
2017-09-16T00:20:02.091Z,11.41
2017-09-16T00:20:28.220Z,11.5
2017-09-16T00:20:54.349Z,11.48
2017-09-16T00:21:20.477Z,11.5
2017-09-16T00:21:46.607Z,11.52
2017-09-16T00:22:12.736Z,11.48
2017-09-16T00:22:38.865Z,11.51
2017-09-16T00:23:04.997Z,11.51
2017-09-16T00:23:31.147Z,11.55
2017-09-16T00:23:57.277Z,11.48
2017-09-16T00:24:23.406Z,11.48
2017-09-16T00:24:49.535Z,11.48
2017-09-16T00:25:15.664Z,11.35
2017-09-16T00:25:41.793Z,11.43
2017-09-16T00:26:07.921Z,11.43
2017-09-16T00:26:34.052Z,11.44
2017-09-16T00:27:00.180Z,11.41
2017-09-16T00:27:26.310Z,11.45
2017-09-16T00:27:52.439Z,11.41
2017-09-16T00:28:18.568Z,11.45
2017-09-16T00:28:44.697Z,11.43
2017-09-16T00:29:10.826Z,11.37
2017-09-16T00:29:36.955Z,11.43
2017-09-16T00:30:03.085Z,11.41
2017-09-16T00:30:29.213Z,11.4
2017-09-16T00:30:55.342Z,11.44
2017-09-16T00:31:21.472Z,11.48
2017-09-16T00:31:47.601Z,11.44
2017-09-16T00:32:13.730Z,11.48
2017-09-16T00:32:39.859Z,11.51
2017-09-16T00:33:05.987Z,11.44
2017-09-16T00:33:32.116Z,11.4
2017-09-16T00:33:58.246Z,11.41
2017-09-16T00:34:24.398Z,11.35
2017-09-16T00:34:50.526Z,11.36
2017-09-16T00:35:16.654Z,11.43
2017-09-16T00:35:42.783Z,11.37
2017-09-16T00:36:08.914Z,11.33
2017-09-16T00:36:35.042Z,11.35
2017-09-16T00:37:01.171Z,11.32
2017-09-16T00:37:27.300Z,11.36
2017-09-16T00:37:53.430Z,11.32
2017-09-16T00:38:19.559Z,11.32
2017-09-16T00:38:45.689Z,11.22
2017-09-16T00:39:11.817Z,11.29
2017-09-16T00:39:37.946Z,11.4
2017-09-16T00:40:04.075Z,11.3
2017-09-16T00:40:30.203Z,11.32
2017-09-16T00:40:56.333Z,11.25
2017-09-16T00:41:22.463Z,11.25
2017-09-16T00:41:48.592Z,11.25
2017-09-16T00:42:14.720Z,11.25
2017-09-16T00:42:40.849Z,11.27
2017-09-16T00:43:06.978Z,11.27
2017-09-16T00:43:33.107Z,11.25
2017-09-16T00:43:59.236Z,11.32
2017-09-16T00:44:25.389Z,11.3
2017-09-16T00:44:51.518Z,11.29
2017-09-16T00:45:17.647Z,11.32
2017-09-16T00:45:43.777Z,11.3
2017-09-16T00:46:09.905Z,11.23
2017-09-16T00:46:36.035Z,11.3
2017-09-16T00:47:02.163Z,11.27
2017-09-16T00:47:28.292Z,11.29
2017-09-16T00:47:54.420Z,11.3
2017-09-16T00:48:20.550Z,11.3
2017-09-16T00:48:46.678Z,11.33
2017-09-16T00:49:12.807Z,11.22
2017-09-16T00:49:38.935Z,11.26
2017-09-16T00:50:05.065Z,11.23
2017-09-16T00:50:31.195Z,11.25
2017-09-16T00:50:57.326Z,11.3
2017-09-16T00:51:23.475Z,11.25
2017-09-16T00:51:49.605Z,11.23
2017-09-16T00:52:15.731Z,11.25
2017-09-16T00:52:41.860Z,11.25
2017-09-16T00:53:07.988Z,11.19
2017-09-16T00:53:34.117Z,11.26
2017-09-16T00:54:00.246Z,11.23
2017-09-16T00:54:26.375Z,11.19
2017-09-16T00:54:52.549Z,11.22
2017-09-16T00:55:18.678Z,11.19
2017-09-16T00:55:44.807Z,11.27
2017-09-16T00:56:10.936Z,11.27
2017-09-16T00:56:37.065Z,11.23
2017-09-16T00:57:03.195Z,11.14
2017-09-16T00:57:29.323Z,11.15
2017-09-16T00:57:55.452Z,11.23
2017-09-16T00:58:21.581Z,11.14
2017-09-16T00:58:47.711Z,11.14
2017-09-16T00:59:13.841Z,11.18
2017-09-16T00:59:39.968Z,11.17
2017-09-16T01:00:06.096Z,11.14
2017-09-16T01:00:32.227Z,11.17
2017-09-16T01:00:58.353Z,11.15
2017-09-16T01:01:24.483Z,11.11
2017-09-16T01:01:50.635Z,11.12
2017-09-16T01:02:16.765Z,11.08
2017-09-16T01:02:42.894Z,11.05
2017-09-16T01:03:09.023Z,11.12
2017-09-16T01:03:35.152Z,11.08
2017-09-16T01:04:01.306Z,11.04
2017-09-16T01:04:27.410Z,11.12
2017-09-16T01:04:53.539Z,11.07
2017-09-16T01:05:19.667Z,11.11
2017-09-16T01:05:45.797Z,11.04
2017-09-16T01:06:11.927Z,10.96
2017-09-16T01:06:38.055Z,11.1
2017-09-16T01:07:04.184Z,11.08
2017-09-16T01:07:30.313Z,11.05
2017-09-16T01:07:56.465Z,11.05
2017-09-16T01:08:22.595Z,11.04
2017-09-16T01:08:48.722Z,11.07
2017-09-16T01:09:14.852Z,11
2017-09-16T01:09:40.980Z,11.02
2017-09-16T01:10:07.109Z,11
2017-09-16T01:10:33.260Z,11.02
2017-09-16T01:10:59.389Z,10.96
2017-09-16T01:11:25.518Z,11.05
2017-09-16T01:11:51.647Z,10.99
2017-09-16T01:12:17.776Z,10.97
2017-09-16T01:12:43.905Z,10.94
2017-09-16T01:13:10.034Z,11
2017-09-16T01:13:36.162Z,10.99
2017-09-16T01:14:02.290Z,10.96
2017-09-16T01:14:28.420Z,10.99
2017-09-16T01:14:54.549Z,11
2017-09-16T01:15:20.678Z,11.02
2017-09-16T01:15:46.830Z,11.04
2017-09-16T01:16:12.957Z,11.04
2017-09-16T01:16:39.087Z,11
2017-09-16T01:17:05.239Z,11.04
2017-09-16T01:17:31.367Z,11.02
2017-09-16T01:17:57.496Z,10.92
2017-09-16T01:18:23.626Z,10.97
2017-09-16T01:18:49.753Z,10.93
2017-09-16T01:19:15.883Z,10.97
2017-09-16T01:19:42.013Z,10.9
2017-09-16T01:20:08.141Z,10.94
2017-09-16T01:20:34.270Z,10.92
2017-09-16T01:21:00.399Z,10.87
2017-09-16T01:21:26.528Z,11.04
2017-09-16T01:21:52.657Z,10.87
2017-09-16T01:22:18.808Z,10.93
2017-09-16T01:22:44.915Z,10.89
2017-09-16T01:23:11.044Z,10.81
2017-09-16T01:23:37.173Z,10.9
2017-09-16T01:24:03.302Z,10.82
2017-09-16T01:24:29.431Z,10.87
2017-09-16T01:24:55.559Z,10.89
2017-09-16T01:25:21.688Z,10.93
2017-09-16T01:25:47.817Z,10.92
2017-09-16T01:26:13.947Z,10.89
2017-09-16T01:26:40.075Z,10.86
2017-09-16T01:27:06.205Z,10.82
2017-09-16T01:27:32.341Z,10.86
2017-09-16T01:27:58.506Z,10.9
2017-09-16T01:28:24.612Z,10.84
2017-09-16T01:28:50.742Z,10.9
2017-09-16T01:29:16.870Z,10.92
2017-09-16T01:29:43.002Z,10.84
2017-09-16T01:30:09.151Z,10.84
2017-09-16T01:30:35.279Z,10.96
2017-09-16T01:31:01.408Z,10.87
2017-09-16T01:31:27.537Z,11.02
2017-09-16T01:31:53.666Z,10.9
2017-09-16T01:32:19.795Z,10.93
2017-09-16T01:32:45.970Z,10.87
2017-09-16T01:33:12.098Z,10.86
2017-09-16T01:33:38.226Z,10.84
2017-09-16T01:34:04.355Z,10.78
2017-09-16T01:34:30.484Z,10.94
2017-09-16T01:34:56.614Z,10.9
2017-09-16T01:35:22.743Z,10.9
2017-09-16T01:35:48.872Z,10.92
2017-09-16T01:36:15.000Z,10.87
2017-09-16T01:36:41.128Z,10.93
2017-09-16T01:37:07.257Z,10.86
2017-09-16T01:37:33.386Z,10.86
2017-09-16T01:37:59.515Z,10.79
2017-09-16T01:38:25.644Z,10.81
2017-09-16T01:38:51.773Z,10.82
2017-09-16T01:39:17.902Z,10.81
2017-09-16T01:39:44.033Z,10.82
2017-09-16T01:40:10.181Z,10.75
2017-09-16T01:40:36.309Z,10.84
2017-09-16T01:41:02.437Z,10.81
2017-09-16T01:41:28.566Z,10.86
2017-09-16T01:41:54.698Z,10.82
2017-09-16T01:42:20.849Z,10.82
2017-09-16T01:42:46.977Z,10.79
2017-09-16T01:43:13.106Z,10.78
2017-09-16T01:43:39.235Z,10.81
2017-09-16T01:44:05.365Z,10.68
2017-09-16T01:44:31.493Z,10.75
2017-09-16T01:44:57.620Z,10.74
2017-09-16T01:45:23.750Z,10.78
2017-09-16T01:45:49.879Z,10.79
2017-09-16T01:46:16.030Z,10.79
2017-09-16T01:46:42.158Z,10.86
2017-09-16T01:47:08.287Z,10.72
2017-09-16T01:47:34.415Z,10.74
2017-09-16T01:48:00.545Z,10.76
2017-09-16T01:48:26.672Z,10.74
2017-09-16T01:48:52.802Z,10.71
2017-09-16T01:49:18.929Z,10.72
2017-09-16T01:49:45.082Z,10.81
2017-09-16T01:50:11.214Z,10.81
2017-09-16T01:50:37.341Z,10.82
2017-09-16T01:51:03.470Z,10.81
2017-09-16T01:51:29.598Z,10.82
2017-09-16T01:51:55.727Z,10.86
2017-09-16T01:52:21.856Z,10.79
2017-09-16T01:52:47.984Z,10.84
2017-09-16T01:53:14.113Z,10.75
2017-09-16T01:53:40.245Z,10.79
2017-09-16T01:54:06.373Z,10.75
2017-09-16T01:54:32.502Z,10.74
2017-09-16T01:54:58.652Z,10.79
2017-09-16T01:55:24.780Z,10.72
2017-09-16T01:55:50.909Z,10.75
2017-09-16T01:56:17.038Z,10.87
2017-09-16T01:56:43.166Z,10.79
2017-09-16T01:57:09.296Z,10.82
2017-09-16T01:57:35.425Z,10.71
2017-09-16T01:58:01.554Z,10.72
2017-09-16T01:58:27.684Z,10.72
2017-09-16T01:58:53.819Z,10.75
2017-09-16T01:59:19.951Z,10.72
2017-09-16T01:59:46.106Z,10.74
2017-09-16T02:00:12.253Z,10.72
2017-09-16T02:00:38.405Z,10.81
2017-09-16T02:01:04.531Z,10.82
2017-09-16T02:01:30.660Z,10.86
2017-09-16T02:01:56.789Z,10.82
2017-09-16T02:02:22.918Z,10.75
2017-09-16T02:02:49.047Z,10.79
2017-09-16T02:03:15.176Z,10.84
2017-09-16T02:03:41.305Z,10.84
2017-09-16T02:04:07.435Z,10.78
2017-09-16T02:04:33.564Z,10.84
2017-09-16T02:04:59.693Z,10.94
2017-09-16T02:05:25.821Z,10.81
2017-09-16T02:05:51.950Z,10.78
2017-09-16T02:06:18.080Z,10.76
2017-09-16T02:06:44.208Z,10.76
2017-09-16T02:07:10.337Z,10.76
2017-09-16T02:07:36.466Z,10.84
2017-09-16T02:08:02.599Z,10.79
2017-09-16T02:08:28.773Z,10.74
2017-09-16T02:08:54.903Z,10.81
2017-09-16T02:09:21.035Z,10.75
2017-09-16T02:09:47.164Z,10.79
2017-09-16T02:10:13.292Z,10.84
2017-09-16T02:10:39.422Z,10.82
2017-09-16T02:11:05.550Z,10.79
2017-09-16T02:11:31.680Z,10.67
2017-09-16T02:11:57.807Z,10.86
2017-09-16T02:12:23.940Z,10.71
2017-09-16T02:12:50.065Z,10.74
2017-09-16T02:13:16.194Z,10.64
2017-09-16T02:13:42.324Z,10.69
2017-09-16T02:14:08.476Z,10.72
2017-09-16T02:14:34.626Z,10.75
2017-09-16T02:15:00.754Z,10.68
2017-09-16T02:15:26.881Z,10.71
2017-09-16T02:15:53.009Z,10.74
2017-09-16T02:16:19.136Z,10.71
2017-09-16T02:16:45.267Z,10.69
2017-09-16T02:17:11.419Z,10.67
2017-09-16T02:17:37.548Z,10.72
2017-09-16T02:18:03.687Z,10.74
2017-09-16T02:18:29.828Z,10.74
2017-09-16T02:18:55.956Z,10.71
2017-09-16T02:19:22.086Z,10.74
2017-09-16T02:19:48.214Z,10.69
2017-09-16T02:20:14.343Z,10.71
2017-09-16T02:20:40.472Z,10.71
2017-09-16T02:21:06.601Z,10.72
2017-09-16T02:21:32.730Z,10.72
2017-09-16T02:21:58.859Z,10.71
2017-09-16T02:22:24.988Z,10.74
2017-09-16T02:22:51.117Z,10.71
2017-09-16T02:23:17.247Z,10.75
2017-09-16T02:23:43.373Z,10.79
2017-09-16T02:24:09.503Z,10.79
2017-09-16T02:24:35.631Z,10.81
2017-09-16T02:25:01.761Z,10.82
2017-09-16T02:25:27.890Z,10.79
2017-09-16T02:25:54.018Z,10.84
2017-09-16T02:26:20.146Z,10.87
2017-09-16T02:26:46.299Z,10.76
2017-09-16T02:27:12.427Z,10.67
2017-09-16T02:27:38.557Z,10.79
2017-09-16T02:28:04.685Z,10.71
2017-09-16T02:28:30.814Z,10.82
2017-09-16T02:28:56.945Z,10.79
2017-09-16T02:29:23.078Z,10.81
2017-09-16T02:29:49.223Z,10.76
2017-09-16T02:30:15.352Z,10.79
2017-09-16T02:30:41.480Z,10.81
2017-09-16T02:31:07.607Z,10.86
2017-09-16T02:31:33.740Z,10.94
2017-09-16T02:31:59.867Z,10.87
2017-09-16T02:32:26.019Z,10.87
2017-09-16T02:32:52.150Z,10.84
2017-09-16T02:33:18.319Z,10.81
2017-09-16T02:33:44.447Z,10.82
2017-09-16T02:34:10.576Z,10.87
2017-09-16T02:34:36.728Z,10.89
2017-09-16T02:35:02.856Z,10.82
2017-09-16T02:35:28.984Z,10.87
2017-09-16T02:35:55.164Z,10.82
2017-09-16T02:36:21.294Z,10.76
2017-09-16T02:36:47.423Z,10.74
2017-09-16T02:37:13.552Z,10.71
2017-09-16T02:37:39.681Z,10.82
2017-09-16T02:38:05.816Z,10.76
2017-09-16T02:38:31.960Z,10.71
2017-09-16T02:38:58.089Z,10.79
2017-09-16T02:39:24.219Z,10.78
2017-09-16T02:39:50.350Z,10.74
2017-09-16T02:40:16.478Z,10.79
2017-09-16T02:40:42.607Z,10.79
2017-09-16T02:41:08.736Z,10.79
2017-09-16T02:41:34.888Z,10.82
2017-09-16T02:42:01.015Z,10.84
2017-09-16T02:42:27.143Z,10.79
2017-09-16T02:42:53.271Z,10.81
2017-09-16T02:43:19.401Z,10.78
2017-09-16T02:43:45.531Z,10.93
2017-09-16T02:44:11.659Z,10.86
2017-09-16T02:44:37.788Z,10.82
2017-09-16T02:45:03.939Z,10.79
2017-09-16T02:45:30.067Z,10.79
2017-09-16T02:45:56.195Z,10.84
2017-09-16T02:46:22.326Z,10.79
2017-09-16T02:46:48.457Z,10.82
2017-09-16T02:47:14.585Z,10.94
2017-09-16T02:47:40.714Z,10.84
2017-09-16T02:48:06.842Z,10.82
2017-09-16T02:48:32.969Z,10.74
2017-09-16T02:48:59.099Z,10.78
2017-09-16T02:49:25.231Z,10.86
2017-09-16T02:49:51.378Z,10.72
2017-09-16T02:50:17.511Z,10.78
2017-09-16T02:50:43.635Z,10.82
2017-09-16T02:51:09.764Z,10.78
2017-09-16T02:51:35.893Z,10.75
2017-09-16T02:52:02.021Z,10.87
2017-09-16T02:52:28.151Z,10.84
2017-09-16T02:52:54.279Z,10.87
2017-09-16T02:53:20.408Z,10.82
2017-09-16T02:53:46.536Z,10.82
2017-09-16T02:54:12.667Z,10.87
2017-09-16T02:54:38.796Z,10.92
2017-09-16T02:55:04.924Z,10.9
2017-09-16T02:55:31.053Z,10.89
2017-09-16T02:55:57.183Z,10.84
2017-09-16T02:56:23.311Z,10.84
2017-09-16T02:56:49.440Z,10.92
2017-09-16T02:57:15.569Z,10.86
2017-09-16T02:57:41.699Z,10.79
2017-09-16T02:58:07.827Z,10.75
2017-09-16T02:58:33.959Z,10.82
2017-09-16T02:59:00.085Z,10.78
2017-09-16T02:59:26.214Z,10.72
2017-09-16T02:59:52.363Z,10.72
2017-09-16T03:00:18.493Z,10.68
2017-09-16T03:00:44.624Z,10.71
2017-09-16T03:01:10.772Z,10.71
2017-09-16T03:01:36.901Z,10.74
2017-09-16T03:02:03.030Z,10.71
2017-09-16T03:02:29.158Z,10.69
2017-09-16T03:02:55.288Z,10.71
2017-09-16T03:03:21.423Z,10.74
2017-09-16T03:03:47.568Z,10.71
2017-09-16T03:04:13.697Z,10.69
2017-09-16T03:04:39.825Z,10.69
2017-09-16T03:05:05.959Z,10.71
2017-09-16T03:05:32.108Z,10.69
2017-09-16T03:05:58.237Z,10.69
2017-09-16T03:06:24.369Z,10.82
2017-09-16T03:06:50.496Z,10.74
2017-09-16T03:07:16.627Z,10.69
2017-09-16T03:07:42.779Z,10.71
2017-09-16T03:08:08.909Z,10.75
2017-09-16T03:08:35.038Z,10.75
2017-09-16T03:09:01.168Z,10.63
2017-09-16T03:09:27.295Z,10.68
2017-09-16T03:09:53.425Z,10.68
2017-09-16T03:10:19.586Z,10.74
2017-09-16T03:10:45.707Z,10.68
2017-09-16T03:11:11.835Z,10.71
2017-09-16T03:11:37.965Z,10.72
2017-09-16T03:12:04.095Z,10.68
2017-09-16T03:12:30.246Z,10.72
2017-09-16T03:12:56.373Z,10.72
2017-09-16T03:13:22.502Z,10.69
2017-09-16T03:13:48.630Z,10.74
2017-09-16T03:14:14.759Z,10.64
2017-09-16T03:14:40.890Z,10.69
2017-09-16T03:15:07.016Z,10.59
2017-09-16T03:15:33.144Z,10.68
2017-09-16T03:15:59.274Z,10.63
2017-09-16T03:16:25.404Z,10.74
2017-09-16T03:16:51.532Z,10.72
2017-09-16T03:17:17.661Z,10.64
2017-09-16T03:17:43.790Z,10.64
2017-09-16T03:18:09.921Z,10.68
2017-09-16T03:18:36.070Z,10.64
2017-09-16T03:19:02.198Z,10.71
2017-09-16T03:19:28.327Z,10.68
2017-09-16T03:19:54.459Z,10.71
2017-09-16T03:20:20.606Z,10.67
2017-09-16T03:20:46.734Z,10.68
2017-09-16T03:21:12.863Z,10.69
2017-09-16T03:21:38.992Z,10.67
2017-09-16T03:22:05.122Z,10.72
2017-09-16T03:22:31.252Z,10.78
2017-09-16T03:22:57.378Z,10.81
2017-09-16T03:23:23.508Z,10.71
2017-09-16T03:23:49.637Z,10.75
2017-09-16T03:24:15.766Z,10.71
2017-09-16T03:24:41.895Z,10.75
2017-09-16T03:25:08.025Z,10.84
2017-09-16T03:25:34.153Z,10.93
2017-09-16T03:26:00.282Z,10.89
2017-09-16T03:26:26.412Z,10.82
2017-09-16T03:26:52.540Z,10.82
2017-09-16T03:27:18.670Z,10.81
2017-09-16T03:27:44.799Z,10.75
2017-09-16T03:28:10.929Z,10.75
2017-09-16T03:28:37.057Z,10.9
2017-09-16T03:29:03.186Z,10.86
2017-09-16T03:29:29.314Z,10.86
2017-09-16T03:29:55.444Z,10.82
2017-09-16T03:30:21.573Z,10.86
2017-09-16T03:30:47.702Z,10.79
2017-09-16T03:31:13.832Z,10.78
2017-09-16T03:31:39.961Z,10.82
2017-09-16T03:32:06.091Z,10.87
2017-09-16T03:32:32.219Z,10.81
2017-09-16T03:32:58.348Z,10.82
2017-09-16T03:33:24.501Z,10.92
2017-09-16T03:33:50.630Z,10.92
2017-09-16T03:34:16.759Z,10.82
2017-09-16T03:34:42.908Z,10.94
2017-09-16T03:35:09.037Z,10.9
2017-09-16T03:35:35.165Z,10.89
2017-09-16T03:36:01.300Z,10.81
2017-09-16T03:36:27.426Z,10.79
2017-09-16T03:36:53.553Z,10.79
2017-09-16T03:37:19.682Z,10.84
2017-09-16T03:37:45.812Z,10.82
2017-09-16T03:38:11.942Z,10.86
2017-09-16T03:38:38.070Z,10.94
2017-09-16T03:39:04.202Z,10.86
2017-09-16T03:39:30.351Z,10.93
2017-09-16T03:39:56.481Z,10.9
2017-09-16T03:40:22.610Z,10.81
2017-09-16T03:40:48.737Z,10.99
2017-09-16T03:41:14.866Z,10.93
2017-09-16T03:41:40.994Z,10.92
2017-09-16T03:42:07.125Z,10.82
2017-09-16T03:42:33.254Z,10.89
2017-09-16T03:42:59.382Z,10.92
2017-09-16T03:43:25.513Z,10.82
2017-09-16T03:43:51.642Z,10.86
2017-09-16T03:44:17.770Z,10.86
2017-09-16T03:44:43.898Z,10.94
2017-09-16T03:45:10.028Z,10.9
2017-09-16T03:45:36.157Z,10.84
2017-09-16T03:46:02.286Z,10.92
2017-09-16T03:46:28.415Z,10.92
2017-09-16T03:46:54.545Z,10.84
2017-09-16T03:47:20.673Z,10.94
2017-09-16T03:47:46.824Z,10.87
2017-09-16T03:48:12.931Z,10.87
2017-09-16T03:48:39.061Z,10.97
2017-09-16T03:49:05.190Z,10.9
2017-09-16T03:49:31.318Z,10.9
2017-09-16T03:49:57.448Z,10.99
2017-09-16T03:50:23.577Z,11.04
2017-09-16T03:50:49.706Z,10.96
2017-09-16T03:51:15.858Z,10.9
2017-09-16T03:51:41.986Z,11
2017-09-16T03:52:08.116Z,10.92
2017-09-16T03:52:34.243Z,10.87
2017-09-16T03:53:00.373Z,10.99
2017-09-16T03:53:26.502Z,10.99
2017-09-16T03:53:52.632Z,11.02
2017-09-16T03:54:18.784Z,11
2017-09-16T03:54:44.913Z,10.93
2017-09-16T03:55:11.039Z,10.99
2017-09-16T03:55:37.169Z,11
2017-09-16T03:56:03.298Z,10.99
2017-09-16T03:56:29.427Z,10.94
2017-09-16T03:56:55.556Z,10.97
2017-09-16T03:57:21.685Z,10.97
2017-09-16T03:57:47.814Z,11
2017-09-16T03:58:13.943Z,10.92
2017-09-16T03:58:40.073Z,10.97
2017-09-16T03:59:06.202Z,10.97
2017-09-16T03:59:32.331Z,10.99
2017-09-16T03:59:58.460Z,10.92
2017-09-16T04:00:24.589Z,11.05
2017-09-16T04:00:50.718Z,11.04
2017-09-16T04:01:16.847Z,10.99
2017-09-16T04:01:42.978Z,10.97
2017-09-16T04:02:09.106Z,11.04
2017-09-16T04:02:35.235Z,11
2017-09-16T04:03:01.370Z,10.9
2017-09-16T04:03:27.515Z,11.04
2017-09-16T04:03:53.644Z,10.99
2017-09-16T04:04:19.796Z,10.99
2017-09-16T04:04:45.924Z,10.97
2017-09-16T04:05:12.054Z,10.96
2017-09-16T04:05:38.182Z,11
2017-09-16T04:06:04.312Z,11.08
2017-09-16T04:06:30.441Z,10.93
2017-09-16T04:06:56.569Z,11.07
2017-09-16T04:07:22.699Z,11
2017-09-16T04:07:48.827Z,11.02
2017-09-16T04:08:14.957Z,10.97
2017-09-16T04:08:41.087Z,11
2017-09-16T04:09:07.216Z,10.97
2017-09-16T04:09:33.344Z,10.96
2017-09-16T04:09:59.474Z,10.99
2017-09-16T04:10:25.603Z,11
2017-09-16T04:10:51.732Z,10.93
2017-09-16T04:11:17.862Z,10.94
2017-09-16T04:11:43.991Z,11.05
2017-09-16T04:12:10.119Z,10.99
2017-09-16T04:12:36.250Z,10.99
2017-09-16T04:13:02.378Z,11.1
2017-09-16T04:13:28.507Z,11.04
2017-09-16T04:13:54.637Z,11.11
2017-09-16T04:14:20.767Z,11.1
2017-09-16T04:14:46.896Z,11.15
2017-09-16T04:15:13.025Z,11.04
2017-09-16T04:15:39.155Z,11.15
2017-09-16T04:16:05.303Z,11.1
2017-09-16T04:16:31.433Z,11.07
2017-09-16T04:16:57.561Z,11.11
2017-09-16T04:17:23.714Z,11.11
2017-09-16T04:17:49.843Z,11.12
2017-09-16T04:18:15.971Z,11.23
2017-09-16T04:18:42.101Z,11.22
2017-09-16T04:19:08.229Z,11.14
2017-09-16T04:19:34.358Z,11.12
2017-09-16T04:20:00.487Z,11.15
2017-09-16T04:20:26.617Z,11.12
2017-09-16T04:20:52.746Z,11.19
2017-09-16T04:21:18.876Z,11.19
2017-09-16T04:21:45.025Z,11.26
2017-09-16T04:22:11.154Z,11.26
2017-09-16T04:22:37.305Z,11.22
2017-09-16T04:23:03.435Z,11.22
2017-09-16T04:23:29.564Z,11.25
2017-09-16T04:23:55.692Z,11.19
2017-09-16T04:24:21.821Z,11.17
2017-09-16T04:24:47.951Z,11.25
2017-09-16T04:25:14.080Z,11.11
2017-09-16T04:25:40.211Z,11.22
2017-09-16T04:26:06.340Z,11.3
2017-09-16T04:26:32.469Z,11.22
2017-09-16T04:26:58.598Z,11.3
2017-09-16T04:27:24.727Z,11.29
2017-09-16T04:27:50.879Z,11.35
2017-09-16T04:28:17.030Z,11.27
2017-09-16T04:28:43.159Z,11.26
2017-09-16T04:29:09.312Z,11.3
2017-09-16T04:29:35.457Z,11.25
2017-09-16T04:30:01.587Z,11.3
2017-09-16T04:30:27.716Z,11.37
2017-09-16T04:30:53.845Z,11.43
2017-09-16T04:31:19.974Z,11.45
2017-09-16T04:31:46.104Z,11.41
2017-09-16T04:32:12.233Z,11.41
2017-09-16T04:32:38.362Z,11.44
2017-09-16T04:33:04.493Z,11.43
2017-09-16T04:33:30.622Z,11.43
2017-09-16T04:33:56.752Z,11.36
2017-09-16T04:34:22.880Z,11.32
2017-09-16T04:34:49.010Z,11.32
2017-09-16T04:35:15.140Z,11.29
2017-09-16T04:35:41.268Z,11.27
2017-09-16T04:36:07.399Z,11.19
2017-09-16T04:36:33.527Z,11.26
2017-09-16T04:36:59.655Z,11.26
2017-09-16T04:37:25.784Z,11.29
2017-09-16T04:37:51.913Z,11.29
2017-09-16T04:38:18.042Z,11.32
2017-09-16T04:38:44.171Z,11.32
2017-09-16T04:39:10.301Z,11.32
2017-09-16T04:39:36.430Z,11.26
2017-09-16T04:40:02.565Z,11.26
2017-09-16T04:40:28.734Z,11.15
2017-09-16T04:40:54.863Z,11.19
2017-09-16T04:41:20.991Z,11.27
2017-09-16T04:41:47.120Z,11.27
2017-09-16T04:42:13.249Z,11.3
2017-09-16T04:42:39.379Z,11.26
2017-09-16T04:43:05.528Z,11.26
2017-09-16T04:43:31.656Z,11.23
2017-09-16T04:43:57.785Z,11.27
2017-09-16T04:44:23.914Z,11.29
2017-09-16T04:44:50.044Z,11.27
2017-09-16T04:45:16.173Z,11.23
2017-09-16T04:45:42.302Z,11.25
2017-09-16T04:46:08.431Z,11.18
2017-09-16T04:46:34.562Z,11.23
2017-09-16T04:47:00.691Z,11.19
2017-09-16T04:47:26.842Z,11.19
2017-09-16T04:47:52.971Z,11.22
2017-09-16T04:48:19.100Z,11.19
2017-09-16T04:48:45.230Z,11.11
2017-09-16T04:49:11.359Z,11.17
2017-09-16T04:49:37.487Z,11.15
2017-09-16T04:50:03.617Z,11.17
2017-09-16T04:50:29.747Z,11.19
2017-09-16T04:50:55.875Z,11.15
2017-09-16T04:51:22.006Z,11.11
2017-09-16T04:51:48.134Z,11.15
2017-09-16T04:52:14.263Z,11.18
2017-09-16T04:52:40.394Z,11.15
2017-09-16T04:53:06.522Z,11.25
2017-09-16T04:53:32.651Z,11.3
2017-09-16T04:53:58.781Z,11.27
2017-09-16T04:54:24.910Z,11.25
2017-09-16T04:54:51.038Z,11.25
2017-09-16T04:55:17.167Z,11.3
2017-09-16T04:55:43.302Z,11.32
2017-09-16T04:56:09.425Z,11.32
2017-09-16T04:56:35.555Z,11.3
2017-09-16T04:57:01.684Z,11.3
2017-09-16T04:57:27.812Z,11.29
2017-09-16T04:57:53.943Z,11.17
2017-09-16T04:58:20.072Z,11.25
2017-09-16T04:58:46.204Z,11.18
2017-09-16T04:59:12.332Z,11.22
2017-09-16T04:59:38.460Z,11.26
2017-09-16T05:00:04.589Z,11.19
2017-09-16T05:00:30.719Z,11.23
2017-09-16T05:00:56.848Z,11.18
2017-09-16T05:01:22.977Z,11.17
2017-09-16T05:01:49.127Z,11.27
2017-09-16T05:02:15.255Z,11.25
2017-09-16T05:02:41.384Z,11.3
2017-09-16T05:03:07.513Z,11.29
2017-09-16T05:03:33.642Z,11.32
2017-09-16T05:03:59.772Z,11.26
2017-09-16T05:04:25.900Z,11.26
2017-09-16T05:04:52.031Z,11.29
2017-09-16T05:05:18.161Z,11.25
2017-09-16T05:05:44.291Z,11.25
2017-09-16T05:06:10.420Z,11.23
2017-09-16T05:06:36.548Z,11.3
2017-09-16T05:07:02.676Z,11.29
2017-09-16T05:07:28.805Z,11.19
2017-09-16T05:07:54.935Z,11.33
2017-09-16T05:08:21.087Z,11.27
2017-09-16T05:08:47.218Z,11.27
2017-09-16T05:09:13.346Z,11.22
2017-09-16T05:09:39.475Z,11.23
2017-09-16T05:10:05.605Z,11.3
2017-09-16T05:10:31.734Z,11.32
2017-09-16T05:10:57.863Z,11.27
2017-09-16T05:11:23.993Z,11.33
2017-09-16T05:11:50.122Z,11.3
2017-09-16T05:12:16.251Z,11.35
2017-09-16T05:12:42.401Z,11.4
2017-09-16T05:13:08.530Z,11.4
2017-09-16T05:13:34.659Z,11.35
2017-09-16T05:14:00.788Z,11.32
2017-09-16T05:14:26.918Z,11.32
2017-09-16T05:14:53.047Z,11.3
2017-09-16T05:15:19.177Z,11.32
2017-09-16T05:15:45.305Z,11.36
2017-09-16T05:16:11.434Z,11.32
2017-09-16T05:16:37.563Z,11.4
2017-09-16T05:17:03.692Z,11.36
2017-09-16T05:17:29.821Z,11.36
2017-09-16T05:17:55.951Z,11.41
2017-09-16T05:18:22.080Z,11.41
2017-09-16T05:18:48.210Z,11.4
2017-09-16T05:19:14.339Z,11.37
2017-09-16T05:19:40.469Z,11.41
2017-09-16T05:20:06.598Z,11.36
2017-09-16T05:20:32.751Z,11.37
2017-09-16T05:20:58.879Z,11.43
2017-09-16T05:21:25.009Z,11.36
2017-09-16T05:21:51.138Z,11.37
2017-09-16T05:22:17.267Z,11.41
2017-09-16T05:22:43.397Z,11.35
2017-09-16T05:23:09.526Z,11.33
2017-09-16T05:23:35.659Z,11.4
2017-09-16T05:24:01.784Z,11.4
2017-09-16T05:24:27.916Z,11.4
2017-09-16T05:24:54.063Z,11.32
2017-09-16T05:25:20.192Z,11.37
2017-09-16T05:25:46.319Z,11.4
2017-09-16T05:26:12.449Z,11.45
2017-09-16T05:26:38.577Z,11.41
2017-09-16T05:27:04.730Z,11.48
2017-09-16T05:27:30.859Z,11.47
2017-09-16T05:27:56.989Z,11.35
2017-09-16T05:28:23.142Z,11.47
2017-09-16T05:28:49.247Z,11.54
2017-09-16T05:29:15.376Z,11.54
2017-09-16T05:29:41.506Z,11.45
2017-09-16T05:30:07.635Z,11.43
2017-09-16T05:30:33.764Z,11.43
2017-09-16T05:30:59.898Z,11.44
2017-09-16T05:31:26.044Z,11.37
2017-09-16T05:31:52.174Z,11.44
2017-09-16T05:32:18.303Z,11.37
2017-09-16T05:32:44.432Z,11.4
2017-09-16T05:33:10.562Z,11.44
2017-09-16T05:33:36.691Z,11.32
2017-09-16T05:34:02.821Z,11.36
2017-09-16T05:34:28.950Z,11.43
2017-09-16T05:34:55.079Z,11.4
2017-09-16T05:35:21.208Z,11.4
2017-09-16T05:35:47.338Z,11.37
2017-09-16T05:36:13.467Z,11.5
2017-09-16T05:36:39.596Z,11.6
2017-09-16T05:37:05.746Z,11.5
2017-09-16T05:37:31.855Z,11.47
2017-09-16T05:37:57.984Z,11.47